createdAt,value
2022-12-03T00:01:14.468Z,101993.63
2022-12-03T00:03:41.424Z,101989.72
2022-12-03T00:06:08.437Z,101986.25
2022-12-03T00:08:35.281Z,101982.25
2022-12-03T00:11:02.083Z,101980.41
2022-12-03T00:13:29.341Z,101981.66
2022-12-03T00:15:56.134Z,101980.84
2022-12-03T00:18:23.636Z,101979.47
2022-12-03T00:20:50.608Z,101987.06
2022-12-03T00:23:17.382Z,101984.53
2022-12-03T00:25:44.201Z,101983.81
2022-12-03T00:28:11.048Z,101977.78
2022-12-03T00:30:37.975Z,101974.22
2022-12-03T00:33:04.818Z,101984.59
2022-12-03T00:35:31.650Z,101977.31
2022-12-03T00:37:58.455Z,101975.00
2022-12-03T00:40:25.261Z,101977.97
2022-12-03T00:42:52.136Z,101968.41
2022-12-03T00:45:19.010Z,101978.03
2022-12-03T00:47:45.820Z,101982.31
2022-12-03T00:50:12.625Z,101980.34
2022-12-03T00:52:39.473Z,101984.47
2022-12-03T00:55:06.780Z,101982.31
2022-12-03T00:57:33.666Z,101982.19
2022-12-03T01:00:00.447Z,101993.75
2022-12-03T01:02:27.325Z,101984.75
2022-12-03T01:04:54.376Z,101985.47
2022-12-03T01:07:21.485Z,101985.66
2022-12-03T01:09:48.304Z,101987.88
2022-12-03T01:12:15.176Z,101991.78
2022-12-03T01:14:42.021Z,101994.91
2022-12-03T01:17:08.841Z,101998.72
2022-12-03T01:19:35.881Z,101990.47
2022-12-03T01:22:02.863Z,101986.41
2022-12-03T01:24:29.692Z,101982.69
2022-12-03T01:26:56.902Z,101988.75
2022-12-03T01:29:24.236Z,101975.88
2022-12-03T01:32:09.713Z,101983.19
2022-12-03T01:34:36.567Z,101981.56
2022-12-03T01:37:03.570Z,101975.94
2022-12-03T01:39:30.427Z,101979.50
2022-12-03T01:41:58.810Z,101973.50
2022-12-03T01:44:28.408Z,101978.19
2022-12-03T01:46:56.666Z,101983.59
2022-12-03T01:49:25.711Z,101979.19
2022-12-03T01:51:52.825Z,101975.34
2022-12-03T01:54:22.417Z,101973.59
2022-12-03T01:56:49.381Z,101977.50
2022-12-03T01:59:18.435Z,101988.56
2022-12-03T02:01:46.010Z,101975.34
2022-12-03T02:04:17.410Z,101976.13
2022-12-03T02:06:44.911Z,101974.16
2022-12-03T02:09:13.240Z,101969.59
2022-12-03T02:11:44.228Z,101974.44
2022-12-03T02:14:13.528Z,101976.75
2022-12-03T02:16:41.793Z,101972.69
2022-12-03T02:19:17.011Z,101978.69
2022-12-03T02:21:58.751Z,101974.34
2022-12-03T02:24:46.205Z,101979.72
2022-12-03T02:27:13.167Z,101978.31
2022-12-03T02:29:40.033Z,101976.25
2022-12-03T02:32:06.850Z,101977.06
2022-12-03T02:34:42.366Z,101979.34
2022-12-03T02:37:16.458Z,101980.84
2022-12-03T02:39:47.281Z,101977.63
2022-12-03T02:42:32.776Z,101978.94
2022-12-03T02:45:05.364Z,101966.31
2022-12-03T02:47:34.937Z,101969.66
2022-12-03T02:50:01.861Z,101961.63
2022-12-03T02:52:28.706Z,101962.53
2022-12-03T02:54:55.915Z,101965.34
2022-12-03T02:57:22.876Z,101959.03
2022-12-03T02:59:49.708Z,101959.66
2022-12-03T03:02:16.791Z,101956.25
2022-12-03T03:04:44.349Z,101963.16
2022-12-03T03:07:11.392Z,101962.75
2022-12-03T03:09:38.319Z,101954.38
2022-12-03T03:12:05.434Z,101965.47
2022-12-03T03:14:32.953Z,101958.84
2022-12-03T03:16:59.756Z,101962.00
2022-12-03T03:19:26.765Z,101954.53
2022-12-03T03:21:53.853Z,101947.03
2022-12-03T03:24:21.593Z,101958.19
2022-12-03T03:26:49.220Z,101952.72
2022-12-03T03:29:16.203Z,101944.13
2022-12-03T03:31:44.200Z,101945.72
2022-12-03T03:34:11.451Z,101947.16
2022-12-03T03:36:38.680Z,101941.66
2022-12-03T03:39:05.978Z,101946.34
2022-12-03T03:41:33.634Z,101943.50
2022-12-03T03:44:00.612Z,101941.72
2022-12-03T03:46:28.462Z,101931.03
2022-12-03T03:48:55.312Z,101930.41
2022-12-03T03:51:22.180Z,101928.78
2022-12-03T03:53:50.031Z,101931.78
2022-12-03T03:56:17.840Z,101928.25
2022-12-03T03:58:44.689Z,101925.66
2022-12-03T04:01:13.114Z,101918.72
2022-12-03T04:03:40.309Z,101918.53
2022-12-03T04:06:07.477Z,101929.19
2022-12-03T04:08:34.389Z,101920.28
2022-12-03T04:11:19.904Z,101899.75
2022-12-03T04:13:46.734Z,101911.44
2022-12-03T04:16:13.559Z,101906.91
2022-12-03T04:18:43.332Z,101905.38
2022-12-03T04:21:33.987Z,101907.28
2022-12-03T04:24:00.941Z,101903.69
2022-12-03T04:26:46.555Z,101904.31
2022-12-03T04:29:13.628Z,101900.59
2022-12-03T04:31:59.130Z,101905.91
2022-12-03T04:34:44.951Z,101906.78
2022-12-03T04:37:11.800Z,101907.03
2022-12-03T04:39:38.611Z,101904.88
2022-12-03T04:42:06.101Z,101901.16
2022-12-03T04:44:33.814Z,101901.53
2022-12-03T04:47:07.161Z,101903.88
2022-12-03T04:49:34.645Z,101907.22
2022-12-03T04:52:01.612Z,101903.09
2022-12-03T04:54:28.821Z,101902.88
2022-12-03T04:56:55.794Z,101903.75
2022-12-03T04:59:22.700Z,101907.28
2022-12-03T05:01:49.612Z,101901.41
2022-12-03T05:04:16.473Z,101896.22
2022-12-03T05:06:43.567Z,101900.97
2022-12-03T05:09:11.138Z,101906.78
2022-12-03T05:11:38.392Z,101898.94
2022-12-03T05:14:05.325Z,101892.63
2022-12-03T05:16:32.393Z,101890.28
2022-12-03T05:18:59.242Z,101888.00
2022-12-03T05:21:26.211Z,101888.88
2022-12-03T05:23:52.985Z,101891.31
2022-12-03T05:26:19.815Z,101885.41
2022-12-03T05:28:46.760Z,101879.41
2022-12-03T05:31:13.682Z,101881.63
2022-12-03T05:33:44.206Z,101882.88
2022-12-03T05:36:11.520Z,101885.25
2022-12-03T05:38:38.725Z,101890.66
2022-12-03T05:41:28.808Z,101885.69
2022-12-03T05:43:55.903Z,101892.34
2022-12-03T05:46:23.619Z,101888.25
2022-12-03T05:48:50.481Z,101889.31
2022-12-03T05:51:17.248Z,101883.47
2022-12-03T05:53:44.120Z,101884.41
2022-12-03T05:56:10.950Z,101888.44
2022-12-03T05:58:37.837Z,101890.34
2022-12-03T06:01:04.651Z,101881.38
2022-12-03T06:03:31.691Z,101884.97
2022-12-03T06:05:58.514Z,101888.66
2022-12-03T06:08:25.365Z,101884.41
2022-12-03T06:10:52.256Z,101878.16
2022-12-03T06:13:19.037Z,101879.41
2022-12-03T06:15:45.899Z,101879.34
2022-12-03T06:18:12.746Z,101877.47
2022-12-03T06:20:39.628Z,101880.88
2022-12-03T06:23:09.166Z,101870.13
2022-12-03T06:25:36.727Z,101871.78
2022-12-03T06:28:03.730Z,101869.94
2022-12-03T06:30:30.587Z,101869.88
2022-12-03T06:32:57.551Z,101870.56
2022-12-03T06:35:24.359Z,101874.72
2022-12-03T06:37:51.173Z,101872.91
2022-12-03T06:40:19.728Z,101870.69
2022-12-03T06:42:46.483Z,101869.94
2022-12-03T06:45:13.467Z,101868.72
2022-12-03T06:47:40.433Z,101874.66
2022-12-03T06:50:08.417Z,101874.97
2022-12-03T06:52:35.492Z,101876.44
2022-12-03T06:55:02.637Z,101867.72
2022-12-03T06:57:29.657Z,101869.19
2022-12-03T06:59:56.639Z,101869.94
2022-12-03T07:02:23.710Z,101864.75
2022-12-03T07:04:53.129Z,101867.09
2022-12-03T07:07:22.261Z,101861.34
2022-12-03T07:09:49.605Z,101865.84
2022-12-03T07:12:19.655Z,101862.22
2022-12-03T07:14:46.785Z,101864.88
2022-12-03T07:17:13.716Z,101858.06
2022-12-03T07:19:40.955Z,101865.13
2022-12-03T07:22:09.140Z,101862.66
2022-12-03T07:24:35.968Z,101858.25
2022-12-03T07:27:02.790Z,101849.06
2022-12-03T07:29:29.669Z,101846.97
2022-12-03T07:31:56.578Z,101856.59
2022-12-03T07:34:23.517Z,101854.69
2022-12-03T07:36:50.398Z,101843.94
2022-12-03T07:39:19.817Z,101847.88
2022-12-03T07:41:49.867Z,101855.72
2022-12-03T07:44:16.669Z,101855.19
2022-12-03T07:46:43.956Z,101857.63
2022-12-03T07:49:12.182Z,101857.78
2022-12-03T07:51:39.298Z,101857.94
2022-12-03T07:54:06.152Z,101856.59
2022-12-03T07:56:33.026Z,101854.25
2022-12-03T07:59:00.169Z,101862.75
2022-12-03T08:01:27.068Z,101865.19
2022-12-03T08:03:54.051Z,101860.59
2022-12-03T08:06:21.728Z,101856.66
2022-12-03T08:08:48.847Z,101861.34
2022-12-03T08:11:15.746Z,101854.69
2022-12-03T08:13:48.564Z,101848.16
2022-12-03T08:16:21.141Z,101850.84
2022-12-03T08:18:50.386Z,101859.13
2022-12-03T08:21:19.226Z,101853.41
2022-12-03T08:23:46.009Z,101850.22
2022-12-03T08:26:22.645Z,101846.63
2022-12-03T08:28:50.726Z,101848.53
2022-12-03T08:31:33.415Z,101849.84
2022-12-03T08:34:16.803Z,101849.41
2022-12-03T08:36:43.718Z,101844.22
2022-12-03T08:39:29.864Z,101846.59
2022-12-03T08:42:27.335Z,101845.84
2022-12-03T08:44:55.517Z,101851.91
2022-12-03T08:47:24.408Z,101852.28
2022-12-03T08:49:55.294Z,101855.78
2022-12-03T08:52:23.462Z,101855.50
2022-12-03T08:54:53.467Z,101856.28
2022-12-03T08:57:32.221Z,101852.75
2022-12-03T09:00:01.929Z,101850.28
2022-12-03T09:02:33.061Z,101850.81
2022-12-03T09:05:14.268Z,101854.00
2022-12-03T09:07:41.187Z,101850.66
2022-12-03T09:10:24.273Z,101851.56
2022-12-03T09:13:03.400Z,101855.25
2022-12-03T09:15:54.527Z,101847.81
2022-12-03T09:18:27.529Z,101842.66
2022-12-03T09:21:09.068Z,101837.56
2022-12-03T09:24:03.192Z,101842.06
2022-12-03T09:26:43.973Z,101834.78
2022-12-03T09:29:24.947Z,101842.91
2022-12-03T09:32:42.572Z,101839.25
2022-12-03T09:35:38.911Z,101837.03
2022-12-03T09:38:15.417Z,101837.00
2022-12-03T09:40:55.179Z,101835.69
2022-12-03T09:44:04.046Z,101830.84
2022-12-03T09:46:44.679Z,101839.22
2022-12-03T09:52:26.521Z,101827.31
2022-12-03T09:55:14.304Z,101820.53
2022-12-03T09:58:04.238Z,101816.88
2022-12-03T10:00:39.142Z,101823.50
2022-12-03T10:03:24.087Z,101819.66
2022-12-03T10:09:06.381Z,101804.22
2022-12-03T10:12:02.375Z,101808.53
2022-12-03T10:14:40.393Z,101807.25
2022-12-03T10:17:18.307Z,101804.50
2022-12-03T10:19:58.300Z,101799.38
2022-12-03T10:22:42.244Z,101791.53
2022-12-03T10:25:31.669Z,101793.06
2022-12-03T10:28:42.158Z,101791.34
2022-12-03T10:31:49.750Z,101794.91
2022-12-03T10:34:52.435Z,101780.81
2022-12-03T10:37:29.922Z,101790.66
2022-12-03T10:40:16.955Z,101777.22
2022-12-03T10:43:00.681Z,101782.38
2022-12-03T10:45:31.725Z,101772.09
2022-12-03T10:48:33.127Z,101774.84
2022-12-03T10:51:39.818Z,101770.13
2022-12-03T10:54:25.377Z,101762.91
2022-12-03T10:56:57.086Z,101767.03
2022-12-03T10:59:26.636Z,101769.63
2022-12-03T11:01:54.055Z,101767.09
2022-12-03T11:04:32.952Z,101765.22
2022-12-03T11:07:02.987Z,101759.81
2022-12-03T11:09:31.932Z,101763.44
2022-12-03T11:12:12.879Z,101763.63
2022-12-03T11:14:53.531Z,101758.22
2022-12-03T11:17:49.910Z,101748.44
2022-12-03T11:20:22.928Z,101745.00
2022-12-03T11:22:58.378Z,101739.22
2022-12-03T11:25:25.244Z,101747.59
2022-12-03T11:28:18.819Z,101746.91
2022-12-03T11:30:48.908Z,101749.50
2022-12-03T11:33:28.650Z,101744.91
2022-12-03T11:36:05.348Z,101739.53
2022-12-03T11:38:38.527Z,101728.28
2022-12-03T11:41:23.821Z,101726.59
2022-12-03T11:43:53.831Z,101722.94
2022-12-03T11:46:39.694Z,101714.44
2022-12-03T11:49:30.317Z,101715.91
2022-12-03T11:51:58.825Z,101714.25
2022-12-03T11:54:26.143Z,101710.72
2022-12-03T11:56:53.735Z,101721.28
2022-12-03T11:59:20.688Z,101715.03
2022-12-03T12:01:47.563Z,101711.91
2022-12-03T12:04:35.619Z,101718.44
2022-12-03T12:07:02.510Z,101710.84
2022-12-03T12:09:55.889Z,101714.25
2022-12-03T12:12:28.235Z,101716.63
2022-12-03T12:14:55.112Z,101715.41
2022-12-03T12:17:32.561Z,101707.75
2022-12-03T12:20:27.850Z,101716.47
2022-12-03T12:22:55.293Z,101709.13
2022-12-03T12:25:37.428Z,101705.97
2022-12-03T12:28:04.362Z,101706.31
2022-12-03T12:30:31.178Z,101702.91
2022-12-03T12:33:10.046Z,101706.50
2022-12-03T12:35:37.217Z,101701.41
2022-12-03T12:38:07.142Z,101712.63
2022-12-03T12:40:45.717Z,101701.72
2022-12-03T12:43:25.003Z,101699.97
2022-12-03T12:45:54.675Z,101695.34
2022-12-03T12:48:27.408Z,101693.34
2022-12-03T12:51:08.794Z,101693.44
2022-12-03T12:53:36.903Z,101690.03
2022-12-03T12:56:31.025Z,101692.03
2022-12-03T12:59:14.387Z,101693.13
2022-12-03T13:01:42.221Z,101695.00
2022-12-03T13:04:18.339Z,101685.00
2022-12-03T13:06:47.681Z,101685.34
2022-12-03T13:09:24.866Z,101685.13
2022-12-03T13:11:59.861Z,101683.47
2022-12-03T13:14:31.878Z,101677.00
2022-12-03T13:17:00.490Z,101672.78
2022-12-03T13:19:29.829Z,101678.91
2022-12-03T13:22:11.437Z,101680.31
2022-12-03T13:24:48.794Z,101675.19
2022-12-03T13:27:19.624Z,101678.50
2022-12-03T13:29:49.424Z,101682.75
2022-12-03T13:32:23.027Z,101680.44
2022-12-03T13:34:52.709Z,101672.88
2022-12-03T13:37:21.327Z,101678.69
2022-12-03T13:39:54.292Z,101675.53
2022-12-03T13:42:38.717Z,101676.34
2022-12-03T13:45:14.795Z,101675.06
2022-12-03T13:47:43.018Z,101672.53
2022-12-03T13:50:33.180Z,101666.19
2022-12-03T13:53:01.515Z,101666.09
2022-12-03T13:55:31.053Z,101669.41
2022-12-03T13:57:57.982Z,101673.97
2022-12-03T14:00:25.173Z,101674.13
2022-12-03T14:02:52.092Z,101666.69
2022-12-03T14:05:19.184Z,101669.28
2022-12-03T14:07:46.129Z,101669.28
2022-12-03T14:10:13.257Z,101673.53
2022-12-03T14:12:40.206Z,101675.03
2022-12-03T14:15:08.579Z,101673.19
2022-12-03T14:17:35.491Z,101671.81
2022-12-03T14:20:03.870Z,101670.78
2022-12-03T14:22:30.960Z,101667.47
2022-12-03T14:24:58.950Z,101664.78
2022-12-03T14:27:25.921Z,101656.84
2022-12-03T14:29:53.123Z,101656.94
2022-12-03T14:32:20.282Z,101658.97
2022-12-03T14:34:47.097Z,101653.72
2022-12-03T14:37:14.048Z,101651.81
2022-12-03T14:39:40.958Z,101648.53
2022-12-03T14:42:13.911Z,101646.22
2022-12-03T14:44:46.389Z,101649.91
2022-12-03T14:47:16.411Z,101655.38
2022-12-03T14:49:43.269Z,101654.09
2022-12-03T14:52:12.546Z,101646.38
2022-12-03T14:54:44.447Z,101654.31
2022-12-03T14:57:15.449Z,101648.28
2022-12-03T14:59:43.290Z,101652.53
2022-12-03T15:02:11.000Z,101652.38
2022-12-03T15:04:38.689Z,101658.19
2022-12-03T15:07:05.886Z,101660.50
2022-12-03T15:09:32.814Z,101665.19
2022-12-03T15:12:00.184Z,101666.13
2022-12-03T15:14:27.167Z,101668.56
2022-12-03T15:16:54.164Z,101659.41
2022-12-03T15:19:21.472Z,101663.66
2022-12-03T15:21:49.779Z,101668.19
2022-12-03T15:24:17.135Z,101662.47
2022-12-03T15:26:44.123Z,101664.66
2022-12-03T15:29:11.136Z,101666.22
2022-12-03T15:31:38.011Z,101665.91
2022-12-03T15:34:05.143Z,101664.91
2022-12-03T15:36:32.109Z,101670.91
2022-12-03T15:39:01.051Z,101671.81
2022-12-03T15:41:30.803Z,101667.69
2022-12-03T15:43:59.421Z,101657.22
2022-12-03T15:46:27.896Z,101662.75
2022-12-03T15:48:55.495Z,101666.44
2022-12-03T15:51:22.602Z,101661.84
2022-12-03T15:53:49.566Z,101660.69
2022-12-03T15:56:16.549Z,101661.31
2022-12-03T15:58:43.523Z,101656.06
2022-12-03T16:01:10.533Z,101656.97
2022-12-03T16:03:37.473Z,101658.44
2022-12-03T16:06:04.696Z,101658.13
2022-12-03T16:08:31.680Z,101662.91
2022-12-03T16:10:58.538Z,101657.44
2022-12-03T16:13:25.509Z,101653.53
2022-12-03T16:15:52.520Z,101658.88
2022-12-03T16:18:19.589Z,101664.94
2022-12-03T16:20:46.617Z,101663.25
2022-12-03T16:23:13.571Z,101658.31
2022-12-03T16:25:40.418Z,101655.25
2022-12-03T16:28:07.308Z,101648.97
2022-12-03T16:30:34.269Z,101647.06
2022-12-03T16:33:01.124Z,101653.50
2022-12-03T16:35:28.227Z,101654.72
2022-12-03T16:37:55.046Z,101658.72
2022-12-03T16:40:21.917Z,101656.97
2022-12-03T16:42:48.815Z,101652.13
2022-12-03T16:45:21.614Z,101657.91
2022-12-03T16:47:49.867Z,101661.78
2022-12-03T16:50:23.083Z,101659.34
2022-12-03T16:52:56.034Z,101663.72
2022-12-03T16:55:23.016Z,101655.25
2022-12-03T16:57:49.911Z,101645.16
2022-12-03T17:00:17.262Z,101643.78
2022-12-03T17:02:44.278Z,101651.97
2022-12-03T17:05:11.259Z,101644.66
2022-12-03T17:07:38.174Z,101644.28
2022-12-03T17:10:05.994Z,101642.63
2022-12-03T17:12:48.177Z,101636.63
2022-12-03T17:15:19.634Z,101636.16
2022-12-03T17:17:46.593Z,101639.56
2022-12-03T17:20:14.671Z,101640.06
2022-12-03T17:22:41.684Z,101642.78
2022-12-03T17:25:09.377Z,101638.88
2022-12-03T17:27:40.838Z,101645.16
2022-12-03T17:30:11.871Z,101642.81
2022-12-03T17:32:38.749Z,101641.53
2022-12-03T17:35:05.904Z,101649.94
2022-12-03T17:37:35.431Z,101654.31
2022-12-03T17:40:02.956Z,101645.00
2022-12-03T17:42:29.868Z,101645.22
2022-12-03T17:44:56.753Z,101644.88
2022-12-03T17:47:23.764Z,101635.84
2022-12-03T17:49:50.685Z,101645.59
2022-12-03T17:52:17.751Z,101639.34
2022-12-03T17:55:09.080Z,101644.63
2022-12-03T17:57:31.425Z,101640.66
2022-12-03T17:59:58.271Z,101644.88
2022-12-03T18:02:25.215Z,101637.81
2022-12-03T18:04:52.016Z,101647.47
2022-12-03T18:07:19.010Z,101634.56
2022-12-03T18:09:45.833Z,101642.84
2022-12-03T18:12:12.926Z,101651.84
2022-12-03T18:14:39.889Z,101657.09
2022-12-03T18:17:06.909Z,101647.00
2022-12-03T18:19:33.746Z,101653.47
2022-12-03T18:22:00.689Z,101650.56
2022-12-03T18:24:27.575Z,101646.44
2022-12-03T18:26:54.360Z,101646.50
2022-12-03T18:29:21.233Z,101641.53
2022-12-03T18:31:48.090Z,101643.25
2022-12-03T18:34:15.251Z,101643.09
2022-12-03T18:36:42.254Z,101637.34
2022-12-03T18:39:18.664Z,101644.59
2022-12-03T18:41:45.509Z,101644.19
2022-12-03T18:44:12.691Z,101632.75
2022-12-03T18:46:56.108Z,101638.38
2022-12-03T18:49:23.557Z,101638.53
2022-12-03T18:51:54.470Z,101639.44
2022-12-03T18:54:25.671Z,101639.44
2022-12-03T18:56:52.467Z,101644.91
2022-12-03T18:59:19.252Z,101644.03
2022-12-03T19:01:46.217Z,101652.59
2022-12-03T19:04:13.608Z,101645.50
2022-12-03T19:06:40.451Z,101642.41
2022-12-03T19:09:07.442Z,101654.16
2022-12-03T19:11:34.297Z,101650.06
2022-12-03T19:14:02.913Z,101647.38
2022-12-03T19:16:30.371Z,101653.19
2022-12-03T19:18:58.093Z,101647.75
2022-12-03T19:21:28.298Z,101647.94
2022-12-03T19:24:23.308Z,101654.56
2022-12-03T19:26:44.523Z,101653.06
2022-12-03T19:29:12.086Z,101655.25
2022-12-03T19:31:39.579Z,101652.28
2022-12-03T19:34:06.506Z,101648.66
2022-12-03T19:36:33.480Z,101660.19
2022-12-03T19:39:00.604Z,101656.50
2022-12-03T19:41:30.556Z,101660.50
2022-12-03T19:43:58.049Z,101661.44
2022-12-03T19:46:28.685Z,101653.06
2022-12-03T19:48:55.578Z,101661.69
2022-12-03T19:51:37.499Z,101654.09
2022-12-03T19:54:06.006Z,101650.03
2022-12-03T19:56:33.538Z,101656.09
2022-12-03T19:59:00.726Z,101658.63
2022-12-03T20:01:30.762Z,101666.72
2022-12-03T20:03:59.042Z,101657.25
2022-12-03T20:06:28.439Z,101657.16
2022-12-03T20:09:00.408Z,101660.84
2022-12-03T20:11:30.559Z,101659.59
2022-12-03T20:13:59.447Z,101661.72
2022-12-03T20:16:27.789Z,101664.72
2022-12-03T20:18:59.873Z,101657.00
2022-12-03T20:21:29.371Z,101655.78
2022-12-03T20:23:56.204Z,101650.75
2022-12-03T20:26:23.875Z,101655.38
2022-12-03T20:28:53.497Z,101651.47
2022-12-03T20:31:22.538Z,101656.25
2022-12-03T20:33:51.655Z,101657.75
2022-12-03T20:36:20.700Z,101650.75
2022-12-03T20:38:47.600Z,101638.06
2022-12-03T20:41:18.658Z,101651.75
2022-12-03T20:43:45.836Z,101645.88
2022-12-03T20:46:14.141Z,101651.13
2022-12-03T20:48:42.524Z,101649.16
2022-12-03T20:51:12.228Z,101655.88
2022-12-03T20:53:39.391Z,101659.44
2022-12-03T20:56:06.832Z,101652.28
2022-12-03T20:58:34.221Z,101649.38
2022-12-03T21:01:15.674Z,101652.28
2022-12-03T21:03:43.849Z,101650.97
2022-12-03T21:06:11.661Z,101646.84
2022-12-03T21:08:42.030Z,101638.34
2022-12-03T21:11:14.740Z,101642.69
2022-12-03T21:13:43.817Z,101642.09
2022-12-03T21:16:13.628Z,101640.91
2022-12-03T21:18:41.105Z,101644.38
2022-12-03T21:21:08.763Z,101650.31
2022-12-03T21:23:35.850Z,101647.84
2022-12-03T21:26:04.632Z,101639.59
2022-12-03T21:28:35.123Z,101643.28
2022-12-03T21:31:04.085Z,101642.41
2022-12-03T21:33:32.035Z,101640.16
2022-12-03T21:35:59.737Z,101645.88
2022-12-03T21:38:29.713Z,101645.88
2022-12-03T21:40:57.254Z,101641.22
2022-12-03T21:43:24.812Z,101644.78
2022-12-03T21:45:54.458Z,101647.44
2022-12-03T21:48:21.641Z,101648.66
2022-12-03T21:51:03.522Z,101634.88
2022-12-03T21:53:32.192Z,101633.88
2022-12-03T21:55:59.529Z,101634.97
2022-12-03T21:58:26.652Z,101629.13
2022-12-03T22:00:55.912Z,101636.91
2022-12-03T22:03:22.775Z,101627.00
2022-12-03T22:05:52.015Z,101637.06
2022-12-03T22:08:24.728Z,101626.69
2022-12-03T22:10:51.574Z,101627.47
2022-12-03T22:13:18.359Z,101633.53
2022-12-03T22:15:45.502Z,101623.59
2022-12-03T22:18:12.487Z,101622.34
2022-12-03T22:20:41.931Z,101625.28
2022-12-03T22:23:08.747Z,101619.75
2022-12-03T22:25:36.968Z,101629.06
2022-12-03T22:28:04.967Z,101625.88
2022-12-03T22:30:34.925Z,101618.63
2022-12-03T22:33:01.849Z,101628.56
2022-12-03T22:35:30.898Z,101629.06
2022-12-03T22:37:57.827Z,101625.38
2022-12-03T22:40:24.814Z,101620.19
2022-12-03T22:42:51.595Z,101620.25
2022-12-03T22:45:18.481Z,101626.97
2022-12-03T22:47:45.489Z,101620.56
2022-12-03T22:50:12.294Z,101623.88
2022-12-03T22:52:39.197Z,101616.16
2022-12-03T22:55:08.785Z,101620.28
2022-12-03T22:57:35.632Z,101621.78
2022-12-03T23:00:02.531Z,101621.34
2022-12-03T23:02:29.485Z,101617.81
2022-12-03T23:04:59.556Z,101618.53
2022-12-03T23:07:26.427Z,101614.00
2022-12-03T23:09:56.589Z,101603.03
2022-12-03T23:12:23.703Z,101612.81
2022-12-03T23:14:53.875Z,101604.38
2022-12-03T23:17:20.768Z,101601.97
2022-12-03T23:19:47.549Z,101605.56
2022-12-03T23:22:14.776Z,101606.50
2022-12-03T23:24:41.786Z,101603.84
2022-12-03T23:27:10.976Z,101604.53
2022-12-03T23:29:37.849Z,101609.91
2022-12-03T23:32:11.761Z,101606.81
2022-12-03T23:34:38.696Z,101600.84
2022-12-03T23:37:05.600Z,101601.34
2022-12-03T23:39:32.545Z,101592.28
2022-12-03T23:41:59.361Z,101592.34
2022-12-03T23:44:27.670Z,101595.16
2022-12-03T23:46:55.095Z,101594.66
2022-12-03T23:49:22.807Z,101596.16
2022-12-03T23:51:56.419Z,101597.06
2022-12-03T23:54:23.246Z,101599.72
2022-12-03T23:56:50.030Z,101602.09
2022-12-03T23:59:16.824Z,101601.06
